Time;durP1;ratioP1;P1;durP2;ratioP2;P2;SDS_P1;SDS_P2;PMS_P1;PMS_P2;Temp;Humidity;BMP_temperature;BMP_pressure;BME280_temperature;BME280_humidity;BME280_pressure;Samples;Min_cycle;Max_cycle;Signal;HPM_P1;HPM_P2
2021/09/21 00:01:23;;;;;;;;;;;13.00;99.90;;;;;;5143422;27;19943;-87
2021/09/21 00:03:50;;;;;;;;;;;13.00;99.90;;;;;;5145054;27;20096;-86
2021/09/21 00:06:16;;;;;;;;;;;12.90;99.90;;;;;;5151636;27;20441;-86
2021/09/21 00:08:43;;;;;;;;;;;12.90;99.90;;;;;;5141562;27;19967;-86
2021/09/21 00:11:11;;;;;;;;;;;12.90;99.90;;;;;;5143633;27;19966;-86
2021/09/21 00:13:37;;;;;;;;;;;12.80;99.90;;;;;;5143515;27;20341;-85
2021/09/21 00:16:05;;;;;;;;;;;12.90;99.90;;;;;;5142666;27;19959;-85
2021/09/21 00:18:31;;;;;;;;;;;12.80;99.90;;;;;;5141674;27;19950;-86
2021/09/21 00:20:58;;;;;;;;;;;12.80;99.90;;;;;;5141905;27;19945;-86
2021/09/21 00:23:24;;;;;;;;;;;12.70;99.90;;;;;;5142555;27;19989;-86
2021/09/21 00:25:51;;;;;;;;;;;12.80;99.90;;;;;;5142619;27;19963;-86
2021/09/21 00:28:19;;;;;;;;;;;13.20;99.90;;;;;;5149439;27;20014;-86
2021/09/21 00:30:48;;;;;;;;;;;12.80;99.90;;;;;;5148583;27;19953;-87
2021/09/21 00:33:17;;;;;;;;;;;12.90;99.90;;;;;;5143844;27;19942;-86
2021/09/21 00:35:44;;;;;;;;;;;12.90;99.90;;;;;;5142429;27;20371;-86
2021/09/21 00:38:12;;;;;;;;;;;12.80;99.90;;;;;;5150368;27;19926;-85
2021/09/21 00:40:39;;;;;;;;;;;12.70;99.90;;;;;;5160939;27;19908;-86
2021/09/21 00:43:06;;;;;;;;;;;12.70;99.90;;;;;;5161547;27;19955;-86
2021/09/21 00:45:34;;;;;;;;;;;12.70;99.90;;;;;;5161475;27;19945;-86
2021/09/21 00:48:00;;;;;;;;;;;12.70;99.90;;;;;;5161621;27;19927;-87
2021/09/21 00:50:29;;;;;;;;;;;12.80;99.90;;;;;;5160951;27;19929;-86
2021/09/21 00:52:56;;;;;;;;;;;12.70;99.90;;;;;;5144414;27;19998;-86
2021/09/21 00:55:23;;;;;;;;;;;12.70;99.90;;;;;;5141402;27;19965;-86
2021/09/21 00:57:49;;;;;;;;;;;12.80;99.90;;;;;;5141289;27;20414;-86
2021/09/21 01:00:17;;;;;;;;;;;12.80;99.90;;;;;;5140579;27;19949;-86
2021/09/21 01:02:45;;;;;;;;;;;12.80;99.90;;;;;;5141133;27;19948;-86
2021/09/21 01:05:12;;;;;;;;;;;12.80;99.90;;;;;;5140525;27;19969;-85
2021/09/21 01:07:39;;;;;;;;;;;12.80;99.90;;;;;;5139846;27;19992;-86
2021/09/21 01:10:07;;;;;;;;;;;12.80;99.90;;;;;;5139618;27;19948;-86
2021/09/21 01:12:34;;;;;;;;;;;12.80;99.90;;;;;;5140650;27;19979;-86
2021/09/21 01:15:01;;;;;;;;;;;12.80;99.90;;;;;;5139317;27;19967;-86
2021/09/21 01:17:28;;;;;;;;;;;12.90;99.90;;;;;;5139134;27;19982;-86
2021/09/21 01:19:56;;;;;;;;;;;12.90;99.90;;;;;;5139999;27;19946;-86
2021/09/21 01:22:24;;;;;;;;;;;12.90;99.90;;;;;;5140508;27;19951;-86
2021/09/21 01:24:50;;;;;;;;;;;12.90;99.90;;;;;;5139888;27;19981;-87
2021/09/21 01:27:17;;;;;;;;;;;12.80;99.90;;;;;;5140536;27;19944;-86
2021/09/21 01:29:43;;;;;;;;;;;12.90;99.90;;;;;;5141543;27;19979;-86
2021/09/21 01:32:10;;;;;;;;;;;12.80;99.90;;;;;;5148820;27;20050;-85
2021/09/21 01:34:36;;;;;;;;;;;12.80;99.90;;;;;;5157665;27;19939;-87
2021/09/21 01:37:03;;;;;;;;;;;12.80;99.90;;;;;;5160088;27;19938;-86
2021/09/21 01:39:31;;;;;;;;;;;12.80;99.90;;;;;;5159867;27;19931;-85
2021/09/21 01:41:58;;;;;;;;;;;12.90;99.90;;;;;;5160139;27;19928;-85
2021/09/21 01:44:24;;;;;;;;;;;12.90;99.90;;;;;;5147225;28;19956;-86
2021/09/21 01:46:51;;;;;;;;;;;12.80;99.90;;;;;;5145167;27;20440;-85
2021/09/21 01:49:19;;;;;;;;;;;12.80;99.90;;;;;;5142421;28;19944;-86
2021/09/21 01:51:52;;;;;;;;;;;12.80;99.90;;;;;;5140147;28;19985;-86
2021/09/21 01:54:24;;;;;;;;;;;12.80;99.90;;;;;;5139427;28;20035;-86
2021/09/21 01:59:35;;;;;;;;;;;12.70;99.90;;;;;;5107754;28;19943;-86
2021/09/21 02:02:02;;;;;;;;;;;12.70;99.90;;;;;;5139152;28;19972;-86
2021/09/21 02:04:28;;;;;;;;;;;12.70;99.90;;;;;;5139905;28;19987;-86
2021/09/21 02:06:56;;;;;;;;;;;12.70;99.90;;;;;;5140688;27;19959;-86
2021/09/21 02:09:22;;;;;;;;;;;12.80;99.90;;;;;;5140193;28;20313;-86
2021/09/21 02:11:49;;;;;;;;;;;12.80;99.90;;;;;;5140711;28;19946;-86
2021/09/21 02:14:18;;;;;;;;;;;12.80;99.90;;;;;;5139149;28;19945;-86
2021/09/21 02:16:45;;;;;;;;;;;12.80;99.90;;;;;;5139556;27;20035;-86
2021/09/21 02:19:15;;;;;;;;;;;12.80;99.90;;;;;;5140396;28;19943;-85
2021/09/21 02:21:41;;;;;;;;;;;12.70;99.90;;;;;;5139144;27;19951;-86
2021/09/21 02:24:08;;;;;;;;;;;13.40;99.90;;;;;;5142884;27;19945;-86
2021/09/21 02:26:36;;;;;;;;;;;12.80;99.90;;;;;;5143348;27;19964;-86
2021/09/21 02:29:03;;;;;;;;;;;12.80;99.90;;;;;;5144077;27;19944;-86
2021/09/21 02:31:30;;;;;;;;;;;12.80;99.90;;;;;;5143493;27;19941;-86
2021/09/21 02:33:57;;;;;;;;;;;12.80;99.90;;;;;;5125694;27;19987;-86
2021/09/21 02:36:23;;;;;;;;;;;12.80;99.90;;;;;;5143233;27;20000;-86
2021/09/21 02:38:50;;;;;;;;;;;12.70;99.90;;;;;;5143116;27;19953;-86
2021/09/21 02:41:16;;;;;;;;;;;12.60;99.90;;;;;;5142678;27;20060;-86
2021/09/21 02:43:43;;;;;;;;;;;12.80;99.90;;;;;;5145774;27;19945;-85
2021/09/21 02:46:09;;;;;;;;;;;12.60;99.90;;;;;;5150707;27;19970;-86
2021/09/21 02:48:37;;;;;;;;;;;12.60;99.90;;;;;;5144413;27;19953;-86
2021/09/21 02:51:04;;;;;;;;;;;12.60;99.90;;;;;;5143427;27;19965;-86
2021/09/21 02:53:30;;;;;;;;;;;12.70;99.90;;;;;;5142715;27;19967;-86
2021/09/21 02:55:57;;;;;;;;;;;12.70;99.90;;;;;;5143230;27;19964;-86
2021/09/21 02:58:24;;;;;;;;;;;12.70;99.90;;;;;;5142494;27;19943;-86
2021/09/21 03:00:53;;;;;;;;;;;12.70;99.90;;;;;;5142024;27;19944;-86
2021/09/21 03:03:21;;;;;;;;;;;12.60;99.90;;;;;;5140999;27;19953;-87
2021/09/21 03:05:56;;;;;;;;;;;12.60;99.90;;;;;;5140764;27;19968;-85
2021/09/21 03:08:24;;;;;;;;;;;12.60;99.90;;;;;;5141550;27;19937;-86
2021/09/21 03:11:08;;;;;;;;;;;12.70;99.90;;;;;;5142166;27;20400;-85
2021/09/21 03:17:05;;;;;;;;;;;12.60;99.90;;;;;;5145721;27;20403;-85
2021/09/21 03:19:25;;;;;;;;;;;12.70;99.90;;;;;;5144042;27;19949;-86
2021/09/21 03:21:52;;;;;;;;;;;12.70;99.90;;;;;;5143924;27;19943;-85
2021/09/21 03:24:21;;;;;;;;;;;12.60;99.90;;;;;;5141317;27;19945;-86
2021/09/21 03:26:48;;;;;;;;;;;12.50;99.90;;;;;;5140726;27;19992;-86
2021/09/21 03:29:14;;;;;;;;;;;12.70;99.90;;;;;;5141195;27;19943;-86
2021/09/21 03:31:41;;;;;;;;;;;12.60;99.90;;;;;;5141476;27;19943;-87
2021/09/21 03:34:08;;;;;;;;;;;12.50;99.90;;;;;;5147632;27;19968;-86
2021/09/21 03:36:34;;;;;;;;;;;12.60;99.90;;;;;;5162702;27;19944;-87
2021/09/21 03:39:02;;;;;;;;;;;12.60;99.90;;;;;;5162443;27;19967;-87
2021/09/21 03:41:29;;;;;;;;;;;12.60;99.90;;;;;;5162161;27;19942;-87
2021/09/21 03:43:56;;;;;;;;;;;11.90;99.90;;;;;;5162350;27;19944;-86
2021/09/21 03:46:23;;;;;;;;;;;12.50;99.90;;;;;;5161414;27;19963;-86
2021/09/21 03:48:49;;;;;;;;;;;12.50;99.90;;;;;;5145466;27;19993;-87
2021/09/21 03:51:16;;;;;;;;;;;12.50;99.90;;;;;;5143917;27;19943;-87
2021/09/21 03:53:42;;;;;;;;;;;12.60;99.90;;;;;;5143363;27;20374;-86
2021/09/21 03:56:10;;;;;;;;;;;12.60;99.90;;;;;;5141888;27;20432;-86
2021/09/21 03:58:36;;;;;;;;;;;12.60;99.90;;;;;;5142125;27;19944;-87
2021/09/21 04:01:03;;;;;;;;;;;12.50;99.90;;;;;;5141846;27;20361;-86
2021/09/21 04:03:29;;;;;;;;;;;12.50;99.90;;;;;;5142283;27;20305;-86
2021/09/21 04:05:56;;;;;;;;;;;12.40;99.90;;;;;;5140512;27;19962;-86
2021/09/21 04:08:23;;;;;;;;;;;12.40;99.90;;;;;;5140224;27;19995;-86
2021/09/21 04:10:49;;;;;;;;;;;12.50;99.90;;;;;;5141617;27;19964;-85
2021/09/21 04:13:17;;;;;;;;;;;12.50;99.90;;;;;;5141398;27;19943;-86
2021/09/21 04:15:43;;;;;;;;;;;12.40;99.90;;;;;;5139741;27;20307;-85
2021/09/21 04:18:10;;;;;;;;;;;12.50;99.90;;;;;;5140274;27;19950;-85
2021/09/21 04:20:37;;;;;;;;;;;12.50;99.90;;;;;;5138614;27;19982;-84
2021/09/21 04:23:03;;;;;;;;;;;12.40;99.90;;;;;;5138571;27;19983;-84
2021/09/21 04:25:30;;;;;;;;;;;12.50;99.90;;;;;;5138078;27;20432;-84
2021/09/21 04:27:57;;;;;;;;;;;12.50;99.90;;;;;;5142024;27;19946;-83
2021/09/21 04:30:25;;;;;;;;;;;12.50;99.90;;;;;;5144367;27;19992;-83
2021/09/21 04:32:51;;;;;;;;;;;12.50;99.90;;;;;;5143735;27;19956;-84
2021/09/21 04:35:18;;;;;;;;;;;12.50;99.90;;;;;;5140399;27;19961;-84
2021/09/21 04:37:44;;;;;;;;;;;12.50;99.90;;;;;;5139088;27;19950;-84
2021/09/21 04:40:11;;;;;;;;;;;12.40;99.90;;;;;;5138701;27;19989;-83
2021/09/21 04:42:38;;;;;;;;;;;12.40;99.90;;;;;;5138804;27;19996;-84
2021/09/21 04:45:05;;;;;;;;;;;12.30;99.90;;;;;;5139238;27;19964;-84
2021/09/21 04:47:32;;;;;;;;;;;12.30;99.90;;;;;;5139958;27;19990;-84
2021/09/21 04:49:59;;;;;;;;;;;12.30;99.90;;;;;;5138781;27;19947;-84
2021/09/21 04:52:25;;;;;;;;;;;12.30;99.90;;;;;;5137973;27;19986;-84
2021/09/21 04:54:52;;;;;;;;;;;12.40;99.90;;;;;;5138175;27;19992;-84
2021/09/21 04:57:18;;;;;;;;;;;12.40;99.90;;;;;;5144146;27;19943;-83
2021/09/21 04:59:45;;;;;;;;;;;12.40;99.90;;;;;;5146830;27;19965;-83
2021/09/21 05:02:11;;;;;;;;;;;12.40;99.90;;;;;;5151937;27;19945;-83
2021/09/21 05:04:39;;;;;;;;;;;12.50;99.90;;;;;;5148344;27;19954;-83
2021/09/21 05:07:06;;;;;;;;;;;12.50;99.90;;;;;;5145260;27;19968;-83
2021/09/21 05:09:33;;;;;;;;;;;12.70;99.90;;;;;;5140084;27;19995;-83
2021/09/21 05:11:59;;;;;;;;;;;12.50;99.90;;;;;;5137597;27;19946;-83
2021/09/21 05:14:26;;;;;;;;;;;12.40;99.90;;;;;;5138142;27;19986;-83
2021/09/21 05:16:52;;;;;;;;;;;12.60;99.90;;;;;;5138857;27;20416;-83
2021/09/21 05:19:18;;;;;;;;;;;12.60;99.90;;;;;;5138826;27;20000;-83
2021/09/21 05:21:46;;;;;;;;;;;12.60;99.90;;;;;;5137386;27;19946;-83
2021/09/21 05:24:13;;;;;;;;;;;12.70;99.90;;;;;;5144150;27;19944;-83
2021/09/21 05:26:39;;;;;;;;;;;12.80;99.90;;;;;;5145583;27;19989;-83
2021/09/21 05:29:06;;;;;;;;;;;12.70;99.90;;;;;;5147877;27;20370;-83
2021/09/21 05:31:33;;;;;;;;;;;12.70;99.90;;;;;;5138568;27;19943;-83
2021/09/21 05:33:59;;;;;;;;;;;12.70;99.90;;;;;;5137979;27;19945;-84
2021/09/21 05:36:25;;;;;;;;;;;12.50;99.90;;;;;;5137191;27;20081;-84
2021/09/21 05:38:53;;;;;;;;;;;12.50;99.90;;;;;;5137039;27;19966;-84
2021/09/21 05:41:20;;;;;;;;;;;12.50;99.90;;;;;;5140348;27;19980;-83
2021/09/21 05:43:46;;;;;;;;;;;12.70;99.90;;;;;;5137784;27;19945;-84
2021/09/21 05:46:13;;;;;;;;;;;12.50;99.90;;;;;;5136929;27;19999;-84
2021/09/21 05:48:39;;;;;;;;;;;12.70;99.90;;;;;;5138178;28;19948;-84
2021/09/21 05:51:06;;;;;;;;;;;12.60;99.90;;;;;;5137695;28;19945;-84
2021/09/21 05:53:32;;;;;;;;;;;12.60;99.90;;;;;;5135768;28;19983;-84
2021/09/21 05:56:00;;;;;;;;;;;12.70;99.90;;;;;;5136632;27;19989;-84
2021/09/21 05:58:26;;;;;;;;;;;12.60;99.90;;;;;;5141818;27;19947;-84
2021/09/21 06:00:53;;;;;;;;;;;12.80;99.90;;;;;;5142456;27;19945;-84
2021/09/21 06:03:19;;;;;;;;;;;12.70;99.90;;;;;;5141435;27;19985;-84
2021/09/21 06:05:48;;;;;;;;;;;12.80;99.90;;;;;;5140688;27;20009;-85
2021/09/21 06:08:14;;;;;;;;;;;12.80;99.90;;;;;;5142807;27;19945;-83
2021/09/21 06:10:41;;;;;;;;;;;12.80;99.90;;;;;;5142283;27;19979;-83
2021/09/21 06:13:09;;;;;;;;;;;12.80;99.90;;;;;;5143034;27;19946;-84
2021/09/21 06:15:35;;;;;;;;;;;12.80;99.90;;;;;;5142116;27;19960;-85
2021/09/21 06:18:02;;;;;;;;;;;12.90;99.90;;;;;;5141457;27;19973;-85
2021/09/21 06:20:28;;;;;;;;;;;12.80;99.90;;;;;;5141035;27;20007;-84
2021/09/21 06:22:55;;;;;;;;;;;12.80;99.90;;;;;;5142350;27;19950;-83
2021/09/21 06:25:21;;;;;;;;;;;12.80;99.90;;;;;;5143501;27;19967;-84
2021/09/21 06:27:47;;;;;;;;;;;12.80;99.90;;;;;;5143826;27;20056;-84
2021/09/21 06:30:16;;;;;;;;;;;12.90;99.90;;;;;;5142403;27;19987;-84
2021/09/21 06:32:42;;;;;;;;;;;12.80;99.90;;;;;;5152739;27;19997;-84
2021/09/21 06:35:10;;;;;;;;;;;12.90;99.90;;;;;;5158959;27;19967;-84
2021/09/21 06:37:36;;;;;;;;;;;12.90;99.90;;;;;;5157634;27;19954;-82
2021/09/21 06:40:04;;;;;;;;;;;13.00;99.90;;;;;;5163102;27;19937;-82
2021/09/21 06:42:33;;;;;;;;;;;13.10;99.90;;;;;;5161924;27;19941;-83
2021/09/21 06:45:00;;;;;;;;;;;13.50;99.90;;;;;;5158105;27;19962;-84
2021/09/21 06:47:29;;;;;;;;;;;13.20;99.90;;;;;;5149851;27;20373;-83
2021/09/21 06:49:56;;;;;;;;;;;13.20;99.90;;;;;;5149652;27;19943;-83
2021/09/21 06:52:22;;;;;;;;;;;13.30;99.90;;;;;;5157473;27;19936;-84
2021/09/21 06:54:49;;;;;;;;;;;13.40;99.90;;;;;;5157198;27;19985;-84
2021/09/21 06:57:15;;;;;;;;;;;13.30;99.90;;;;;;5160201;27;19942;-83
2021/09/21 06:59:42;;;;;;;;;;;13.30;99.90;;;;;;5162600;27;19954;-84
2021/09/21 07:02:09;;;;;;;;;;;13.40;99.90;;;;;;5162259;27;19961;-84
2021/09/21 07:04:37;;;;;;;;;;;13.50;99.90;;;;;;5155180;27;19947;-82
2021/09/21 07:07:03;;;;;;;;;;;13.50;99.90;;;;;;5156813;27;20444;-84
2021/09/21 07:09:30;;;;;;;;;;;13.60;99.90;;;;;;5154058;27;19933;-83
2021/09/21 07:11:56;;;;;;;;;;;13.70;99.90;;;;;;5152639;27;19943;-83
2021/09/21 07:14:23;;;;;;;;;;;13.80;99.90;;;;;;5153101;27;20303;-83
2021/09/21 07:16:49;;;;;;;;;;;13.70;99.90;;;;;;5160999;27;19989;-83
2021/09/21 07:19:16;;;;;;;;;;;13.60;99.90;;;;;;5155644;27;19944;-84
2021/09/21 07:21:47;;;;;;;;;;;13.50;99.90;;;;;;5153931;27;20014;-83
2021/09/21 07:24:14;;;;;;;;;;;13.50;99.90;;;;;;5150619;27;19956;-83
2021/09/21 07:26:40;;;;;;;;;;;13.60;99.90;;;;;;5140757;27;20325;-83
2021/09/21 07:29:07;;;;;;;;;;;13.50;99.90;;;;;;5139683;27;20462;-83
2021/09/21 07:31:33;;;;;;;;;;;13.60;99.90;;;;;;5140030;27;20005;-84
2021/09/21 07:34:00;;;;;;;;;;;13.60;99.90;;;;;;5140606;27;19967;-83
2021/09/21 07:36:26;;;;;;;;;;;13.60;99.90;;;;;;5152254;27;19963;-84
2021/09/21 07:38:54;;;;;;;;;;;13.60;99.90;;;;;;5151954;27;19952;-84
2021/09/21 07:41:20;;;;;;;;;;;13.70;99.90;;;;;;5148218;27;20342;-83
2021/09/21 07:43:47;;;;;;;;;;;13.90;99.90;;;;;;5151640;27;19951;-83
2021/09/21 07:46:13;;;;;;;;;;;13.70;99.90;;;;;;5150670;27;19965;-83
2021/09/21 07:48:40;;;;;;;;;;;13.80;99.90;;;;;;5150022;27;19944;-83
2021/09/21 07:51:08;;;;;;;;;;;14.00;99.90;;;;;;5150089;27;20300;-82
2021/09/21 07:53:34;;;;;;;;;;;13.90;99.90;;;;;;5145864;27;20058;-84
2021/09/21 07:56:03;;;;;;;;;;;14.00;99.90;;;;;;5139835;27;20007;-84
2021/09/21 07:58:29;;;;;;;;;;;14.10;99.90;;;;;;5147071;27;19970;-84
2021/09/21 08:00:55;;;;;;;;;;;13.70;99.90;;;;;;5148601;27;19941;-84
2021/09/21 08:03:23;;;;;;;;;;;14.30;99.90;;;;;;5150688;27;19948;-85
2021/09/21 08:05:49;;;;;;;;;;;14.40;99.90;;;;;;5148593;27;19966;-83
2021/09/21 08:08:16;;;;;;;;;;;14.30;99.90;;;;;;5148387;27;19996;-82
2021/09/21 08:10:43;;;;;;;;;;;14.30;99.90;;;;;;5146066;27;19945;-83
2021/09/21 08:13:11;;;;;;;;;;;14.30;99.90;;;;;;5148294;27;20356;-83
2021/09/21 08:15:37;;;;;;;;;;;14.30;99.90;;;;;;5149199;27;19985;-81
2021/09/21 08:18:06;;;;;;;;;;;14.40;99.90;;;;;;5146677;27;19958;-82
2021/09/21 08:20:33;;;;;;;;;;;14.40;99.90;;;;;;5144058;27;19943;-82
2021/09/21 08:22:59;;;;;;;;;;;14.50;99.90;;;;;;5144160;27;19947;-82
2021/09/21 08:25:26;;;;;;;;;;;14.60;99.90;;;;;;5144734;27;20325;-83
2021/09/21 08:27:53;;;;;;;;;;;14.50;99.90;;;;;;5145379;27;19958;-83
2021/09/21 08:30:20;;;;;;;;;;;14.50;99.90;;;;;;5144111;27;19956;-82
2021/09/21 08:32:47;;;;;;;;;;;14.70;99.90;;;;;;5144135;27;19950;-83
2021/09/21 08:35:14;;;;;;;;;;;14.60;99.90;;;;;;5144521;27;20026;-84
2021/09/21 08:37:40;;;;;;;;;;;14.50;99.90;;;;;;5144645;27;19956;-83
2021/09/21 08:40:08;;;;;;;;;;;14.60;99.90;;;;;;5142953;27;19952;-83
2021/09/21 08:42:34;;;;;;;;;;;14.60;99.90;;;;;;5143053;27;20058;-84
2021/09/21 08:45:02;;;;;;;;;;;14.70;99.90;;;;;;5143893;27;19961;-83
2021/09/21 08:47:31;;;;;;;;;;;14.10;99.90;;;;;;5144221;27;20123;-83
2021/09/21 08:49:57;;;;;;;;;;;14.60;99.90;;;;;;5144888;27;20045;-83
2021/09/21 08:52:24;;;;;;;;;;;14.60;99.90;;;;;;5146462;27;20355;-84
2021/09/21 08:54:50;;;;;;;;;;;14.50;99.90;;;;;;5142684;27;19952;-84
2021/09/21 08:57:17;;;;;;;;;;;14.70;99.90;;;;;;5143041;27;20029;-88
2021/09/21 08:59:55;;;;;;;;;;;14.70;99.90;;;;;;5150636;27;19961;-92
2021/09/21 09:02:23;;;;;;;;;;;14.70;99.90;;;;;;5150372;27;19941;-93
2021/09/21 09:05:02;;;;;;;;;;;16.10;99.90;;;;;;5144723;27;19953;-91
2021/09/21 09:07:28;;;;;;;;;;;14.80;99.90;;;;;;5142473;27;20360;-91
2021/09/21 09:10:03;;;;;;;;;;;14.70;99.90;;;;;;5143869;27;20357;-91
2021/09/21 09:12:31;;;;;;;;;;;14.80;99.90;;;;;;5146974;27;19938;-91
2021/09/21 09:14:59;;;;;;;;;;;14.80;99.90;;;;;;5142157;27;19969;-90
2021/09/21 09:17:25;;;;;;;;;;;14.80;99.90;;;;;;5152189;27;19943;-83
2021/09/21 09:19:52;;;;;;;;;;;13.20;99.90;;;;;;5154332;27;20385;-83
2021/09/21 09:22:22;;;;;;;;;;;14.80;99.90;;;;;;5157079;27;20386;-83
2021/09/21 09:24:50;;;;;;;;;;;15.10;99.90;;;;;;5160268;27;19934;-86
2021/09/21 09:27:16;;;;;;;;;;;15.00;99.90;;;;;;5159567;27;20045;-82
2021/09/21 09:29:52;;;;;;;;;;;15.20;99.90;;;;;;5160275;27;19949;-83
2021/09/21 09:32:19;;;;;;;;;;;15.00;99.90;;;;;;5159779;27;20081;-84
2021/09/21 09:34:45;;;;;;;;;;;15.00;99.90;;;;;;5157461;27;19941;-82
2021/09/21 09:37:12;;;;;;;;;;;15.10;99.90;;;;;;5146108;27;19948;-84
2021/09/21 09:39:41;;;;;;;;;;;15.20;99.90;;;;;;5145248;27;19952;-83
2021/09/21 09:42:11;;;;;;;;;;;15.20;99.90;;;;;;5143916;27;22418;-83
2021/09/21 09:44:38;;;;;;;;;;;15.20;99.90;;;;;;5143798;27;19991;-84
2021/09/21 09:47:06;;;;;;;;;;;15.20;99.90;;;;;;5148503;28;19958;-82
2021/09/21 09:49:34;;;;;;;;;;;15.30;99.90;;;;;;5147342;28;19944;-82
2021/09/21 09:52:04;;;;;;;;;;;15.30;99.90;;;;;;5143161;28;20423;-83
2021/09/21 09:54:31;;;;;;;;;;;15.20;99.90;;;;;;5143442;28;19998;-83
2021/09/21 09:56:59;;;;;;;;;;;15.30;99.90;;;;;;5144428;27;19963;-83
2021/09/21 09:59:27;;;;;;;;;;;15.20;99.90;;;;;;5145752;28;19946;-82
2021/09/21 10:01:54;;;;;;;;;;;15.30;99.90;;;;;;5141320;28;20312;-83
2021/09/21 10:04:21;;;;;;;;;;;15.20;99.90;;;;;;5140839;28;19946;-82
2021/09/21 10:06:48;;;;;;;;;;;15.30;99.90;;;;;;5140841;27;19973;-83
2021/09/21 10:09:15;;;;;;;;;;;15.40;99.90;;;;;;5140168;28;19955;-83
2021/09/21 10:11:44;;;;;;;;;;;15.40;99.90;;;;;;5142210;28;19947;-83
2021/09/21 10:14:12;;;;;;;;;;;15.50;99.90;;;;;;5142262;28;19995;-83
2021/09/21 10:16:46;;;;;;;;;;;15.40;99.90;;;;;;5141478;27;20015;-82
2021/09/21 10:19:18;;;;;;;;;;;15.50;99.90;;;;;;5141719;28;19938;-83
2021/09/21 10:21:46;;;;;;;;;;;15.60;99.90;;;;;;5140685;28;19949;-82
2021/09/21 10:24:13;;;;;;;;;;;15.60;99.90;;;;;;5142463;28;20006;-83
2021/09/21 10:26:40;;;;;;;;;;;15.50;99.90;;;;;;5141112;27;19991;-83
2021/09/21 10:29:07;;;;;;;;;;;15.70;99.90;;;;;;5140271;28;20042;-83
2021/09/21 10:31:38;;;;;;;;;;;15.70;99.90;;;;;;5142233;28;20019;-83
2021/09/21 10:34:11;;;;;;;;;;;15.80;99.90;;;;;;5147920;28;19936;-83
2021/09/21 10:36:45;;;;;;;;;;;15.80;99.90;;;;;;5142287;27;19961;-82
2021/09/21 10:39:12;;;;;;;;;;;15.70;99.90;;;;;;5138756;28;19940;-83
2021/09/21 10:41:46;;;;;;;;;;;15.90;99.90;;;;;;5139455;28;19951;-81
2021/09/21 10:44:12;;;;;;;;;;;16.00;99.90;;;;;;5141284;27;19943;-84
2021/09/21 10:46:44;;;;;;;;;;;15.90;99.90;;;;;;5142414;27;19961;-83
2021/09/21 10:49:10;;;;;;;;;;;15.90;99.90;;;;;;5142024;27;19961;-83
2021/09/21 10:51:47;;;;;;;;;;;15.90;99.90;;;;;;5143475;27;19947;-83
2021/09/21 10:54:14;;;;;;;;;;;16.00;99.90;;;;;;5146521;27;19955;-83
2021/09/21 10:56:40;;;;;;;;;;;16.00;99.90;;;;;;5143971;27;19965;-83
2021/09/21 10:59:14;;;;;;;;;;;16.10;99.90;;;;;;5143647;27;19948;-82
2021/09/21 11:01:47;;;;;;;;;;;16.00;99.90;;;;;;5143671;27;19941;-82
2021/09/21 11:04:13;;;;;;;;;;;15.90;99.90;;;;;;5144972;27;19945;-82
2021/09/21 11:06:43;;;;;;;;;;;16.00;99.90;;;;;;5142944;27;20018;-83
2021/09/21 11:09:09;;;;;;;;;;;15.90;99.90;;;;;;5142435;27;20444;-81
2021/09/21 11:11:36;;;;;;;;;;;15.90;99.90;;;;;;5142422;27;19942;-83
2021/09/21 11:14:02;;;;;;;;;;;15.90;99.90;;;;;;5139920;27;19969;-81
2021/09/21 11:16:29;;;;;;;;;;;15.70;99.90;;;;;;5140932;27;19958;-83
2021/09/21 11:18:57;;;;;;;;;;;15.60;99.90;;;;;;5140604;27;19966;-81
2021/09/21 11:21:24;;;;;;;;;;;15.50;99.90;;;;;;5141991;27;19946;-82
2021/09/21 11:23:50;;;;;;;;;;;15.40;99.90;;;;;;5143106;27;19987;-81
2021/09/21 11:26:16;;;;;;;;;;;15.30;99.90;;;;;;5143753;27;19962;-81
2021/09/21 11:28:44;;;;;;;;;;;15.30;99.90;;;;;;5141758;27;20051;-82
2021/09/21 11:31:10;;;;;;;;;;;15.30;99.90;;;;;;5141856;27;19947;-83
2021/09/21 11:33:38;;;;;;;;;;;15.40;99.90;;;;;;5142913;27;19973;-82
2021/09/21 11:36:07;;;;;;;;;;;15.20;99.90;;;;;;5149062;27;19959;-81
2021/09/21 11:38:34;;;;;;;;;;;15.40;99.90;;;;;;5158367;27;19997;-81
2021/09/21 11:41:01;;;;;;;;;;;15.40;99.90;;;;;;5157623;27;19929;-81
2021/09/21 11:43:29;;;;;;;;;;;15.50;99.90;;;;;;5155889;27;19949;-82
2021/09/21 11:45:57;;;;;;;;;;;15.50;99.90;;;;;;5146432;27;19969;-82
2021/09/21 11:48:24;;;;;;;;;;;15.40;99.90;;;;;;5149937;27;19962;-82
2021/09/21 11:50:51;;;;;;;;;;;15.30;99.90;;;;;;5147745;27;20031;-83
2021/09/21 11:53:20;;;;;;;;;;;15.20;99.90;;;;;;5142756;27;19992;-83
2021/09/21 11:55:49;;;;;;;;;;;15.30;99.90;;;;;;5143508;27;19963;-82
2021/09/21 11:58:16;;;;;;;;;;;15.40;99.90;;;;;;5142928;27;20090;-82
2021/09/21 12:00:44;;;;;;;;;;;15.30;99.90;;;;;;5142661;27;19963;-83
2021/09/21 12:03:12;;;;;;;;;;;15.40;99.90;;;;;;5142815;27;19992;-83
2021/09/21 12:05:39;;;;;;;;;;;15.30;99.90;;;;;;5144791;27;20375;-83
2021/09/21 12:08:06;;;;;;;;;;;15.60;99.90;;;;;;5147575;27;19967;-82
2021/09/21 12:10:36;;;;;;;;;;;15.50;99.90;;;;;;5144021;27;19944;-82
2021/09/21 12:13:05;;;;;;;;;;;15.60;99.90;;;;;;5157897;27;19930;-81
2021/09/21 12:15:32;;;;;;;;;;;15.70;99.90;;;;;;5159883;27;19963;-82
2021/09/21 12:17:59;;;;;;;;;;;15.80;99.90;;;;;;5158821;27;19948;-82
2021/09/21 12:20:28;;;;;;;;;;;15.80;99.90;;;;;;5160495;27;19936;-83
2021/09/21 12:22:55;;;;;;;;;;;15.70;99.90;;;;;;5161332;27;19927;-83
2021/09/21 12:25:23;;;;;;;;;;;15.50;99.90;;;;;;5161406;27;19946;-81
2021/09/21 12:27:54;;;;;;;;;;;15.40;99.90;;;;;;5160714;27;19968;-81
2021/09/21 12:30:22;;;;;;;;;;;15.50;99.90;;;;;;5158577;27;19976;-81
2021/09/21 12:32:56;;;;;;;;;;;15.40;99.90;;;;;;5153633;27;19965;-83
2021/09/21 12:35:22;;;;;;;;;;;15.50;99.90;;;;;;5145129;27;19958;-82
2021/09/21 12:37:53;;;;;;;;;;;15.40;99.90;;;;;;5142894;27;20304;-82
2021/09/21 12:40:19;;;;;;;;;;;15.40;99.90;;;;;;5143824;27;19958;-82
2021/09/21 12:42:45;;;;;;;;;;;15.50;99.90;;;;;;5143107;27;20319;-81
2021/09/21 12:45:15;;;;;;;;;;;15.50;99.90;;;;;;5141616;27;20007;-82
2021/09/21 12:47:41;;;;;;;;;;;15.60;99.90;;;;;;5140915;27;19943;-81
2021/09/21 12:50:13;;;;;;;;;;;15.60;99.90;;;;;;5140497;27;19973;-82
2021/09/21 12:52:49;;;;;;;;;;;15.60;99.90;;;;;;5143536;27;19967;-83
2021/09/21 12:55:25;;;;;;;;;;;15.70;99.90;;;;;;5143726;27;20010;-82
2021/09/21 12:57:53;;;;;;;;;;;15.70;99.90;;;;;;5146550;27;19930;-82
2021/09/21 13:00:21;;;;;;;;;;;15.70;99.90;;;;;;5149206;27;19996;-82
2021/09/21 13:02:47;;;;;;;;;;;15.60;99.90;;;;;;5147876;27;19923;-82
2021/09/21 13:05:13;;;;;;;;;;;15.90;99.90;;;;;;5144148;27;19970;-83
2021/09/21 13:07:40;;;;;;;;;;;15.60;99.90;;;;;;5143230;27;19952;-83
2021/09/21 13:10:07;;;;;;;;;;;16.10;99.90;;;;;;5145033;27;19965;-82
2021/09/21 13:12:34;;;;;;;;;;;15.60;99.90;;;;;;5142735;27;19923;-82
2021/09/21 13:15:00;;;;;;;;;;;15.70;99.90;;;;;;5141783;27;19960;-83
2021/09/21 13:17:28;;;;;;;;;;;15.60;99.90;;;;;;5139824;27;19924;-81
2021/09/21 13:19:54;;;;;;;;;;;15.40;99.90;;;;;;5139099;27;19968;-81
2021/09/21 13:22:21;;;;;;;;;;;15.50;99.90;;;;;;5140521;27;20013;-82
2021/09/21 13:24:47;;;;;;;;;;;15.50;99.90;;;;;;5141481;27;19944;-83
2021/09/21 13:27:14;;;;;;;;;;;15.60;99.90;;;;;;5142040;27;19989;-83
2021/09/21 13:29:42;;;;;;;;;;;15.40;99.90;;;;;;5142386;27;19975;-84
2021/09/21 13:32:11;;;;;;;;;;;15.20;99.90;;;;;;5142828;27;19938;-84
2021/09/21 13:34:40;;;;;;;;;;;15.50;99.90;;;;;;5143122;27;20402;-84
2021/09/21 13:37:06;;;;;;;;;;;15.40;99.90;;;;;;5143574;27;19923;-82
2021/09/21 13:39:33;;;;;;;;;;;15.30;99.90;;;;;;5140975;27;19996;-81
2021/09/21 13:41:59;;;;;;;;;;;15.30;99.90;;;;;;5141191;27;19999;-83
2021/09/21 13:44:27;;;;;;;;;;;15.30;99.90;;;;;;5140686;27;19923;-83
2021/09/21 13:46:53;;;;;;;;;;;15.40;99.90;;;;;;5140136;27;19924;-83
2021/09/21 13:49:20;;;;;;;;;;;15.30;99.90;;;;;;5142878;28;20009;-84
2021/09/21 13:51:47;;;;;;;;;;;15.30;99.90;;;;;;5145653;28;19942;-84
2021/09/21 13:54:14;;;;;;;;;;;16.00;99.90;;;;;;5153783;28;19945;-83
2021/09/21 13:56:40;;;;;;;;;;;15.40;99.90;;;;;;5141587;27;20459;-83
2021/09/21 13:59:07;;;;;;;;;;;15.30;99.90;;;;;;5141212;28;19943;-83
2021/09/21 14:01:33;;;;;;;;;;;15.40;99.90;;;;;;5140666;28;20412;-83
2021/09/21 14:04:00;;;;;;;;;;;15.40;99.90;;;;;;5141195;28;19946;-83
2021/09/21 14:06:26;;;;;;;;;;;15.70;99.90;;;;;;5141784;27;20013;-83
2021/09/21 14:08:54;;;;;;;;;;;15.40;99.90;;;;;;5140641;28;19923;-83
2021/09/21 14:11:21;;;;;;;;;;;15.40;99.90;;;;;;5141095;28;19942;-83
2021/09/21 14:13:48;;;;;;;;;;;15.40;99.90;;;;;;5140462;28;19945;-84
2021/09/21 14:16:14;;;;;;;;;;;15.20;99.90;;;;;;5141020;27;20496;-83
2021/09/21 14:18:41;;;;;;;;;;;15.30;99.90;;;;;;5142602;27;20435;-82
2021/09/21 14:21:07;;;;;;;;;;;15.40;99.90;;;;;;5143291;27;19942;-82
2021/09/21 14:23:34;;;;;;;;;;;15.30;99.90;;;;;;5151266;27;19942;-82